sensor_id;sensor_type;location;lat;lon;timestamp;temperature;humidity
36690;DHT22;22676;51.120;3.702;2023-12-29T00:01:14;22.30;48.30
36690;DHT22;22676;51.120;3.702;2023-12-29T00:03:40;22.20;48.40
36690;DHT22;22676;51.120;3.702;2023-12-29T00:06:06;22.20;48.40
36690;DHT22;22676;51.120;3.702;2023-12-29T00:08:31;22.20;48.40
36690;DHT22;22676;51.120;3.702;2023-12-29T00:10:57;22.20;48.50
36690;DHT22;22676;51.120;3.702;2023-12-29T00:13:23;22.20;48.50
36690;DHT22;22676;51.120;3.702;2023-12-29T00:15:53;22.30;48.60
36690;DHT22;22676;51.120;3.702;2023-12-29T00:18:19;22.30;48.60
36690;DHT22;22676;51.120;3.702;2023-12-29T00:20:45;22.20;48.60
36690;DHT22;22676;51.120;3.702;2023-12-29T00:23:11;22.20;48.60
36690;DHT22;22676;51.120;3.702;2023-12-29T00:25:37;22.20;48.60
36690;DHT22;22676;51.120;3.702;2023-12-29T00:28:06;22.20;48.10
36690;DHT22;22676;51.120;3.702;2023-12-29T00:30:32;22.20;48.10
36690;DHT22;22676;51.120;3.702;2023-12-29T00:32:58;22.20;48.60
36690;DHT22;22676;51.120;3.702;2023-12-29T00:35:23;22.20;48.80
36690;DHT22;22676;51.120;3.702;2023-12-29T00:37:50;22.20;48.70
36690;DHT22;22676;51.120;3.702;2023-12-29T00:40:16;22.20;48.70
36690;DHT22;22676;51.120;3.702;2023-12-29T00:42:42;22.20;48.70
36690;DHT22;22676;51.120;3.702;2023-12-29T00:45:08;22.20;48.70
36690;DHT22;22676;51.120;3.702;2023-12-29T00:47:33;22.20;48.80
36690;DHT22;22676;51.120;3.702;2023-12-29T00:50:00;22.20;48.80
36690;DHT22;22676;51.120;3.702;2023-12-29T00:52:27;22.20;48.80
36690;DHT22;22676;51.120;3.702;2023-12-29T00:54:52;22.20;48.70
36690;DHT22;22676;51.120;3.702;2023-12-29T00:57:18;22.20;48.70
36690;DHT22;22676;51.120;3.702;2023-12-29T00:59:46;22.20;48.80
36690;DHT22;22676;51.120;3.702;2023-12-29T01:02:12;22.20;48.80
36690;DHT22;22676;51.120;3.702;2023-12-29T01:04:38;22.20;48.90
36690;DHT22;22676;51.120;3.702;2023-12-29T01:07:07;22.20;48.80
36690;DHT22;22676;51.120;3.702;2023-12-29T01:09:37;22.20;48.80
36690;DHT22;22676;51.120;3.702;2023-12-29T01:12:04;22.20;48.80
36690;DHT22;22676;51.120;3.702;2023-12-29T01:14:29;22.20;48.90
36690;DHT22;22676;51.120;3.702;2023-12-29T01:16:55;22.20;48.60
36690;DHT22;22676;51.120;3.702;2023-12-29T01:19:21;22.20;48.80
36690;DHT22;22676;51.120;3.702;2023-12-29T01:21:46;22.20;48.80
36690;DHT22;22676;51.120;3.702;2023-12-29T01:24:12;22.20;48.80
36690;DHT22;22676;51.120;3.702;2023-12-29T01:26:38;22.20;49.20
36690;DHT22;22676;51.120;3.702;2023-12-29T01:29:04;22.20;48.10
36690;DHT22;22676;51.120;3.702;2023-12-29T01:31:31;22.20;48.10
36690;DHT22;22676;51.120;3.702;2023-12-29T01:33:57;22.20;48.70
36690;DHT22;22676;51.120;3.702;2023-12-29T01:36:22;22.20;48.80
36690;DHT22;22676;51.120;3.702;2023-12-29T01:38:48;22.20;48.80
36690;DHT22;22676;51.120;3.702;2023-12-29T01:41:14;22.20;48.70
36690;DHT22;22676;51.120;3.702;2023-12-29T01:46:25;22.20;48.60
36690;DHT22;22676;51.120;3.702;2023-12-29T01:48:51;22.20;48.70
36690;DHT22;22676;51.120;3.702;2023-12-29T01:51:17;22.20;48.80
36690;DHT22;22676;51.120;3.702;2023-12-29T01:53:46;22.20;48.80
36690;DHT22;22676;51.120;3.702;2023-12-29T01:56:13;22.20;48.80
36690;DHT22;22676;51.120;3.702;2023-12-29T01:58:39;22.20;48.70
36690;DHT22;22676;51.120;3.702;2023-12-29T02:01:04;22.20;48.70
36690;DHT22;22676;51.120;3.702;2023-12-29T02:03:32;22.20;48.80
36690;DHT22;22676;51.120;3.702;2023-12-29T02:05:58;22.20;48.80
36690;DHT22;22676;51.120;3.702;2023-12-29T02:08:25;22.20;48.80
36690;DHT22;22676;51.120;3.702;2023-12-29T02:10:51;22.20;48.70
36690;DHT22;22676;51.120;3.702;2023-12-29T02:13:16;22.20;48.80
36690;DHT22;22676;51.120;3.702;2023-12-29T02:15:42;22.20;48.90
36690;DHT22;22676;51.120;3.702;2023-12-29T02:18:11;22.20;48.80
36690;DHT22;22676;51.120;3.702;2023-12-29T02:20:41;22.20;48.80
36690;DHT22;22676;51.120;3.702;2023-12-29T02:23:06;22.20;48.80
36690;DHT22;22676;51.120;3.702;2023-12-29T02:25:32;22.20;48.80
36690;DHT22;22676;51.120;3.702;2023-12-29T02:27:59;22.20;48.00
36690;DHT22;22676;51.120;3.702;2023-12-29T02:30:51;22.20;48.00
36690;DHT22;22676;51.120;3.702;2023-12-29T02:33:21;22.20;48.60
36690;DHT22;22676;51.120;3.702;2023-12-29T02:35:48;22.20;48.70
36690;DHT22;22676;51.120;3.702;2023-12-29T02:38:16;22.20;48.60
36690;DHT22;22676;51.120;3.702;2023-12-29T02:40:41;22.20;48.70
36690;DHT22;22676;51.120;3.702;2023-12-29T02:43:09;22.20;48.60
36690;DHT22;22676;51.120;3.702;2023-12-29T02:45:35;22.20;49.10
36690;DHT22;22676;51.120;3.702;2023-12-29T02:48:00;22.20;48.60
36690;DHT22;22676;51.120;3.702;2023-12-29T02:50:26;22.20;48.60
36690;DHT22;22676;51.120;3.702;2023-12-29T02:52:52;22.20;48.50
36690;DHT22;22676;51.120;3.702;2023-12-29T02:55:17;22.20;48.60
36690;DHT22;22676;51.120;3.702;2023-12-29T02:57:43;22.20;48.60
36690;DHT22;22676;51.120;3.702;2023-12-29T03:00:09;22.20;48.60
36690;DHT22;22676;51.120;3.702;2023-12-29T03:02:35;22.20;48.50
36690;DHT22;22676;51.120;3.702;2023-12-29T03:05:01;22.20;48.60
36690;DHT22;22676;51.120;3.702;2023-12-29T03:07:27;22.20;48.50
36690;DHT22;22676;51.120;3.702;2023-12-29T03:09:53;22.20;48.60
36690;DHT22;22676;51.120;3.702;2023-12-29T03:12:18;22.20;48.60
36690;DHT22;22676;51.120;3.702;2023-12-29T03:14:44;22.20;48.60
36690;DHT22;22676;51.120;3.702;2023-12-29T03:17:12;22.20;48.50
36690;DHT22;22676;51.120;3.702;2023-12-29T03:19:38;22.20;48.50
36690;DHT22;22676;51.120;3.702;2023-12-29T03:22:03;22.20;48.50
36690;DHT22;22676;51.120;3.702;2023-12-29T03:24:29;22.20;48.60
36690;DHT22;22676;51.120;3.702;2023-12-29T03:26:55;22.20;47.90
36690;DHT22;22676;51.120;3.702;2023-12-29T03:29:21;22.20;47.90
36690;DHT22;22676;51.120;3.702;2023-12-29T03:31:47;22.20;47.90
36690;DHT22;22676;51.120;3.702;2023-12-29T03:34:12;22.20;48.50
36690;DHT22;22676;51.120;3.702;2023-12-29T03:36:38;22.20;48.60
36690;DHT22;22676;51.120;3.702;2023-12-29T03:39:03;22.20;48.50
36690;DHT22;22676;51.120;3.702;2023-12-29T03:41:30;22.20;48.60
36690;DHT22;22676;51.120;3.702;2023-12-29T03:43:55;22.20;48.40
36690;DHT22;22676;51.120;3.702;2023-12-29T03:46:22;22.20;48.50
36690;DHT22;22676;51.120;3.702;2023-12-29T03:48:48;22.20;48.40
36690;DHT22;22676;51.120;3.702;2023-12-29T03:51:15;22.20;48.40
36690;DHT22;22676;51.120;3.702;2023-12-29T03:53:41;22.20;48.40
36690;DHT22;22676;51.120;3.702;2023-12-29T03:56:07;22.20;48.40
36690;DHT22;22676;51.120;3.702;2023-12-29T03:58:33;22.20;48.30
36690;DHT22;22676;51.120;3.702;2023-12-29T04:00:59;22.20;48.40
36690;DHT22;22676;51.120;3.702;2023-12-29T04:03:25;22.20;48.30
36690;DHT22;22676;51.120;3.702;2023-12-29T04:05:50;22.20;48.30
36690;DHT22;22676;51.120;3.702;2023-12-29T04:08:16;22.20;48.30
36690;DHT22;22676;51.120;3.702;2023-12-29T04:10:42;22.20;48.40
36690;DHT22;22676;51.120;3.702;2023-12-29T04:13:07;22.30;48.40
36690;DHT22;22676;51.120;3.702;2023-12-29T04:15:33;22.20;48.20
36690;DHT22;22676;51.120;3.702;2023-12-29T04:17:58;22.20;48.20
36690;DHT22;22676;51.120;3.702;2023-12-29T04:20:24;22.30;48.40
36690;DHT22;22676;51.120;3.702;2023-12-29T04:22:50;22.30;48.40
36690;DHT22;22676;51.120;3.702;2023-12-29T04:25:15;22.20;48.30
36690;DHT22;22676;51.120;3.702;2023-12-29T04:27:41;22.20;47.60
36690;DHT22;22676;51.120;3.702;2023-12-29T04:30:07;22.20;47.80
36690;DHT22;22676;51.120;3.702;2023-12-29T04:32:33;22.20;48.00
36690;DHT22;22676;51.120;3.702;2023-12-29T04:34:59;22.20;48.30
36690;DHT22;22676;51.120;3.702;2023-12-29T04:37:24;22.20;48.40
36690;DHT22;22676;51.120;3.702;2023-12-29T04:39:50;22.20;48.20
36690;DHT22;22676;51.120;3.702;2023-12-29T04:42:16;22.20;48.10
36690;DHT22;22676;51.120;3.702;2023-12-29T04:44:43;22.20;48.20
36690;DHT22;22676;51.120;3.702;2023-12-29T04:47:09;22.20;48.20
36690;DHT22;22676;51.120;3.702;2023-12-29T04:49:35;22.20;47.90
36690;DHT22;22676;51.120;3.702;2023-12-29T04:52:00;22.20;48.10
36690;DHT22;22676;51.120;3.702;2023-12-29T04:54:27;22.20;48.10
36690;DHT22;22676;51.120;3.702;2023-12-29T04:56:52;22.20;48.00
36690;DHT22;22676;51.120;3.702;2023-12-29T04:59:18;22.20;48.10
36690;DHT22;22676;51.120;3.702;2023-12-29T05:01:44;22.20;48.10
36690;DHT22;22676;51.120;3.702;2023-12-29T05:04:09;22.20;48.00
36690;DHT22;22676;51.120;3.702;2023-12-29T05:06:35;22.20;48.10
36690;DHT22;22676;51.120;3.702;2023-12-29T05:09:01;22.20;48.10
36690;DHT22;22676;51.120;3.702;2023-12-29T05:11:27;22.20;48.10
36690;DHT22;22676;51.120;3.702;2023-12-29T05:13:53;22.20;48.10
36690;DHT22;22676;51.120;3.702;2023-12-29T05:16:18;22.20;48.10
36690;DHT22;22676;51.120;3.702;2023-12-29T05:18:44;22.20;48.00
36690;DHT22;22676;51.120;3.702;2023-12-29T05:21:17;22.30;48.10
36690;DHT22;22676;51.120;3.702;2023-12-29T05:23:44;22.20;48.10
36690;DHT22;22676;51.120;3.702;2023-12-29T05:26:10;22.20;48.10
36690;DHT22;22676;51.120;3.702;2023-12-29T05:28:36;22.20;47.70
36690;DHT22;22676;51.120;3.702;2023-12-29T05:31:02;22.20;47.70
36690;DHT22;22676;51.120;3.702;2023-12-29T05:33:33;22.10;48.00
36690;DHT22;22676;51.120;3.702;2023-12-29T05:36:04;22.10;48.00
36690;DHT22;22676;51.120;3.702;2023-12-29T05:38:31;22.20;48.20
36690;DHT22;22676;51.120;3.702;2023-12-29T05:40:57;22.10;48.10
36690;DHT22;22676;51.120;3.702;2023-12-29T05:43:22;22.20;48.10
36690;DHT22;22676;51.120;3.702;2023-12-29T05:45:48;22.30;48.10
36690;DHT22;22676;51.120;3.702;2023-12-29T05:48:14;22.30;48.00
36690;DHT22;22676;51.120;3.702;2023-12-29T05:50:39;22.40;47.80
36690;DHT22;22676;51.120;3.702;2023-12-29T05:53:05;22.40;47.70
36690;DHT22;22676;51.120;3.702;2023-12-29T05:55:31;22.50;47.60
36690;DHT22;22676;51.120;3.702;2023-12-29T05:57:57;22.50;47.40
36690;DHT22;22676;51.120;3.702;2023-12-29T06:00:22;22.60;47.40
36690;DHT22;22676;51.120;3.702;2023-12-29T06:02:48;22.70;47.40
36690;DHT22;22676;51.120;3.702;2023-12-29T06:05:14;22.70;47.20
36690;DHT22;22676;51.120;3.702;2023-12-29T06:07:40;22.80;47.10
36690;DHT22;22676;51.120;3.702;2023-12-29T06:10:06;22.90;46.90
36690;DHT22;22676;51.120;3.702;2023-12-29T06:12:31;22.90;46.90
36690;DHT22;22676;51.120;3.702;2023-12-29T06:14:57;23.00;46.80
36690;DHT22;22676;51.120;3.702;2023-12-29T06:17:23;23.10;46.70
36690;DHT22;22676;51.120;3.702;2023-12-29T06:19:48;23.10;46.50
36690;DHT22;22676;51.120;3.702;2023-12-29T06:22:14;23.20;46.50
36690;DHT22;22676;51.120;3.702;2023-12-29T06:24:43;23.30;46.30
36690;DHT22;22676;51.120;3.702;2023-12-29T06:27:09;23.30;45.80
36690;DHT22;22676;51.120;3.702;2023-12-29T06:29:35;23.40;45.40
36690;DHT22;22676;51.120;3.702;2023-12-29T06:32:02;23.40;45.30
36690;DHT22;22676;51.120;3.702;2023-12-29T06:34:27;23.50;45.90
36690;DHT22;22676;51.120;3.702;2023-12-29T06:36:53;23.60;45.90
36690;DHT22;22676;51.120;3.702;2023-12-29T06:39:19;23.60;45.80
36690;DHT22;22676;51.120;3.702;2023-12-29T06:41:44;23.70;45.80
36690;DHT22;22676;51.120;3.702;2023-12-29T06:44:10;23.70;45.80
36690;DHT22;22676;51.120;3.702;2023-12-29T06:46:39;23.70;45.60
36690;DHT22;22676;51.120;3.702;2023-12-29T06:49:08;23.80;45.60
36690;DHT22;22676;51.120;3.702;2023-12-29T06:51:34;23.90;45.50
36690;DHT22;22676;51.120;3.702;2023-12-29T06:54:01;24.00;45.50
36690;DHT22;22676;51.120;3.702;2023-12-29T06:56:27;24.00;46.00
36690;DHT22;22676;51.120;3.702;2023-12-29T06:58:52;24.10;45.40
36690;DHT22;22676;51.120;3.702;2023-12-29T07:01:18;24.10;45.30
36690;DHT22;22676;51.120;3.702;2023-12-29T07:03:44;24.10;45.30
36690;DHT22;22676;51.120;3.702;2023-12-29T07:06:10;24.00;45.20
36690;DHT22;22676;51.120;3.702;2023-12-29T07:08:36;24.00;45.50
36690;DHT22;22676;51.120;3.702;2023-12-29T07:11:02;23.90;45.60
36690;DHT22;22676;51.120;3.702;2023-12-29T07:13:28;23.80;45.70
36690;DHT22;22676;51.120;3.702;2023-12-29T07:15:54;23.80;45.80
36690;DHT22;22676;51.120;3.702;2023-12-29T07:18:20;23.80;46.00
36690;DHT22;22676;51.120;3.702;2023-12-29T07:20:45;23.70;46.00
36690;DHT22;22676;51.120;3.702;2023-12-29T07:23:11;23.70;46.10
36690;DHT22;22676;51.120;3.702;2023-12-29T07:25:37;23.60;46.20
36690;DHT22;22676;51.120;3.702;2023-12-29T07:28:02;23.60;45.70
36690;DHT22;22676;51.120;3.702;2023-12-29T07:30:28;23.60;45.70
36690;DHT22;22676;51.120;3.702;2023-12-29T07:32:54;23.60;45.90
36690;DHT22;22676;51.120;3.702;2023-12-29T07:35:19;23.50;46.30
36690;DHT22;22676;51.120;3.702;2023-12-29T07:37:46;23.50;46.40
36690;DHT22;22676;51.120;3.702;2023-12-29T07:40:13;23.40;46.40
36690;DHT22;22676;51.120;3.702;2023-12-29T07:42:42;23.40;46.40
36690;DHT22;22676;51.120;3.702;2023-12-29T07:45:10;23.40;46.40
36690;DHT22;22676;51.120;3.702;2023-12-29T07:47:36;23.40;46.50
36690;DHT22;22676;51.120;3.702;2023-12-29T07:50:02;23.30;46.60
36690;DHT22;22676;51.120;3.702;2023-12-29T07:52:28;23.30;46.60
36690;DHT22;22676;51.120;3.702;2023-12-29T07:54:53;23.30;46.80
36690;DHT22;22676;51.120;3.702;2023-12-29T07:57:19;23.30;46.60
36690;DHT22;22676;51.120;3.702;2023-12-29T07:59:44;23.30;46.80
36690;DHT22;22676;51.120;3.702;2023-12-29T08:02:10;23.30;46.90
36690;DHT22;22676;51.120;3.702;2023-12-29T08:04:36;23.30;46.90
36690;DHT22;22676;51.120;3.702;2023-12-29T08:07:02;23.20;46.90
36690;DHT22;22676;51.120;3.702;2023-12-29T08:09:28;23.20;47.00
36690;DHT22;22676;51.120;3.702;2023-12-29T08:11:54;23.20;47.00
36690;DHT22;22676;51.120;3.702;2023-12-29T08:14:19;23.20;47.10
36690;DHT22;22676;51.120;3.702;2023-12-29T08:16:45;23.10;47.00
36690;DHT22;22676;51.120;3.702;2023-12-29T08:19:12;23.10;47.10
36690;DHT22;22676;51.120;3.702;2023-12-29T08:21:37;23.10;47.10
36690;DHT22;22676;51.120;3.702;2023-12-29T08:24:03;23.10;47.30
36690;DHT22;22676;51.120;3.702;2023-12-29T08:26:29;23.10;47.30
36690;DHT22;22676;51.120;3.702;2023-12-29T08:28:55;23.10;46.70
36690;DHT22;22676;51.120;3.702;2023-12-29T08:31:20;23.10;46.70
36690;DHT22;22676;51.120;3.702;2023-12-29T08:33:48;23.10;47.20
36690;DHT22;22676;51.120;3.702;2023-12-29T08:36:17;23.10;47.40
36690;DHT22;22676;51.120;3.702;2023-12-29T08:38:43;23.10;47.20
36690;DHT22;22676;51.120;3.702;2023-12-29T08:41:09;23.10;47.30
36690;DHT22;22676;51.120;3.702;2023-12-29T08:43:34;23.00;47.30
36690;DHT22;22676;51.120;3.702;2023-12-29T08:46:01;23.10;47.50
36690;DHT22;22676;51.120;3.702;2023-12-29T08:48:27;23.10;47.60
36690;DHT22;22676;51.120;3.702;2023-12-29T08:50:53;23.10;47.70
36690;DHT22;22676;51.120;3.702;2023-12-29T08:53:18;23.10;47.70
36690;DHT22;22676;51.120;3.702;2023-12-29T08:55:44;23.10;47.90
36690;DHT22;22676;51.120;3.702;2023-12-29T08:58:10;23.10;48.00
36690;DHT22;22676;51.120;3.702;2023-12-29T09:00:36;23.10;48.10
36690;DHT22;22676;51.120;3.702;2023-12-29T09:03:02;23.10;48.20
36690;DHT22;22676;51.120;3.702;2023-12-29T09:05:28;23.10;48.30
36690;DHT22;22676;51.120;3.702;2023-12-29T09:07:54;23.10;48.30
36690;DHT22;22676;51.120;3.702;2023-12-29T09:10:19;23.20;48.60
36690;DHT22;22676;51.120;3.702;2023-12-29T09:12:46;23.20;48.70
36690;DHT22;22676;51.120;3.702;2023-12-29T09:15:12;23.20;48.70
36690;DHT22;22676;51.120;3.702;2023-12-29T09:17:38;23.20;48.80
36690;DHT22;22676;51.120;3.702;2023-12-29T09:20:03;23.20;48.90
36690;DHT22;22676;51.120;3.702;2023-12-29T09:22:29;23.20;49.10
36690;DHT22;22676;51.120;3.702;2023-12-29T09:24:55;23.20;49.20
36690;DHT22;22676;51.120;3.702;2023-12-29T09:27:21;23.20;49.00
36690;DHT22;22676;51.120;3.702;2023-12-29T09:29:47;23.20;48.80
36690;DHT22;22676;51.120;3.702;2023-12-29T09:32:13;23.20;48.60
36690;DHT22;22676;51.120;3.702;2023-12-29T09:34:38;23.10;49.00
36690;DHT22;22676;51.120;3.702;2023-12-29T09:37:04;23.10;49.00
36690;DHT22;22676;51.120;3.702;2023-12-29T09:39:29;23.10;48.90
36690;DHT22;22676;51.120;3.702;2023-12-29T09:41:58;23.10;49.00
36690;DHT22;22676;51.120;3.702;2023-12-29T09:44:27;23.00;48.90
36690;DHT22;22676;51.120;3.702;2023-12-29T09:46:54;23.00;48.80
36690;DHT22;22676;51.120;3.702;2023-12-29T09:49:21;23.00;48.80
36690;DHT22;22676;51.120;3.702;2023-12-29T09:52:09;23.00;48.90
36690;DHT22;22676;51.120;3.702;2023-12-29T09:55:34;23.00;49.00
36690;DHT22;22676;51.120;3.702;2023-12-29T09:59:00;22.90;48.40
36690;DHT22;22676;51.120;3.702;2023-12-29T10:02:25;22.90;48.00
36690;DHT22;22676;51.120;3.702;2023-12-29T10:05:54;22.90;47.80
36690;DHT22;22676;51.120;3.702;2023-12-29T10:09:16;22.80;48.00
36690;DHT22;22676;51.120;3.702;2023-12-29T10:12:42;22.80;48.00
36690;DHT22;22676;51.120;3.702;2023-12-29T10:16:15;22.80;48.40
36690;DHT22;22676;51.120;3.702;2023-12-29T10:19:50;22.90;48.20
36690;DHT22;22676;51.120;3.702;2023-12-29T10:25:58;22.80;48.40
36690;DHT22;22676;51.120;3.702;2023-12-29T10:29:23;22.90;48.60
36690;DHT22;22676;51.120;3.702;2023-12-29T10:32:49;22.90;48.50
36690;DHT22;22676;51.120;3.702;2023-12-29T10:36:20;22.90;48.40
36690;DHT22;22676;51.120;3.702;2023-12-29T10:39:55;23.00;48.40
36690;DHT22;22676;51.120;3.702;2023-12-29T10:43:21;23.00;48.70
36690;DHT22;22676;51.120;3.702;2023-12-29T10:46:45;23.00;48.40
36690;DHT22;22676;51.120;3.702;2023-12-29T10:50:11;22.90;48.40
36690;DHT22;22676;51.120;3.702;2023-12-29T10:53:36;22.80;48.70
36690;DHT22;22676;51.120;3.702;2023-12-29T10:57:02;22.70;48.70
36690;DHT22;22676;51.120;3.702;2023-12-29T11:00:30;22.70;48.90
36690;DHT22;22676;51.120;3.702;2023-12-29T11:04:01;22.60;48.90
36690;DHT22;22676;51.120;3.702;2023-12-29T11:07:40;22.60;48.90
36690;DHT22;22676;51.120;3.702;2023-12-29T11:11:05;22.60;49.10
36690;DHT22;22676;51.120;3.702;2023-12-29T11:14:30;22.50;49.10
36690;DHT22;22676;51.120;3.702;2023-12-29T11:17:55;22.50;49.10
36690;DHT22;22676;51.120;3.702;2023-12-29T11:21:21;22.50;49.20
36690;DHT22;22676;51.120;3.702;2023-12-29T11:24:28;22.50;49.20
36690;DHT22;22676;51.120;3.702;2023-12-29T11:27:14;22.50;49.30
36690;DHT22;22676;51.120;3.702;2023-12-29T11:30:39;22.50;49.40
36690;DHT22;22676;51.120;3.702;2023-12-29T11:34:06;22.50;49.40
36690;DHT22;22676;51.120;3.702;2023-12-29T11:37:59;22.50;49.40
36690;DHT22;22676;51.120;3.702;2023-12-29T11:43:57;22.50;49.30
36690;DHT22;22676;51.120;3.702;2023-12-29T11:47:35;22.50;49.30
36690;DHT22;22676;51.120;3.702;2023-12-29T11:51:00;22.50;49.40
36690;DHT22;22676;51.120;3.702;2023-12-29T13:34:39;22.60;49.50
36690;DHT22;22676;51.120;3.702;2023-12-29T14:16:38;22.50;49.50
